sensor_id;sensor_type;location;lat;lon;timestamp;P1;durP1;ratioP1;P2;durP2;ratioP2
77326;SDS011;66399;52.322;20.980;2023-02-03T00:02:30;4.10;;;1.30;;
77326;SDS011;66399;52.322;20.980;2023-02-03T00:06:35;2.50;;;1.40;;
77326;SDS011;66399;52.322;20.980;2023-02-03T00:10:40;4.10;;;2.00;;
77326;SDS011;66399;52.322;20.980;2023-02-03T00:14:45;5.90;;;2.30;;
77326;SDS011;66399;52.322;20.980;2023-02-03T00:18:51;4.70;;;1.90;;
77326;SDS011;66399;52.322;20.980;2023-02-03T00:23:02;5.90;;;2.00;;
77326;SDS011;66399;52.322;20.980;2023-02-03T00:27:08;3.20;;;1.60;;
77326;SDS011;66399;52.322;20.980;2023-02-03T00:31:17;4.40;;;1.90;;
77326;SDS011;66399;52.322;20.980;2023-02-03T00:35:22;1.40;;;0.80;;
77326;SDS011;66399;52.322;20.980;2023-02-03T00:39:27;0.60;;;0.40;;
77326;SDS011;66399;52.322;20.980;2023-02-03T00:43:33;5.00;;;1.70;;
77326;SDS011;66399;52.322;20.980;2023-02-03T00:47:38;4.10;;;1.70;;
77326;SDS011;66399;52.322;20.980;2023-02-03T00:51:43;3.30;;;1.40;;
77326;SDS011;66399;52.322;20.980;2023-02-03T00:55:48;5.30;;;1.70;;
77326;SDS011;66399;52.322;20.980;2023-02-03T00:59:55;3.60;;;1.40;;
77326;SDS011;66399;52.322;20.980;2023-02-03T01:04:01;3.80;;;1.20;;
77326;SDS011;66399;52.322;20.980;2023-02-03T01:08:06;4.50;;;1.80;;
77326;SDS011;66399;52.322;20.980;2023-02-03T01:12:11;3.80;;;1.60;;
77326;SDS011;66399;52.322;20.980;2023-02-03T01:16:17;2.90;;;1.10;;
77326;SDS011;66399;52.322;20.980;2023-02-03T01:20:23;3.70;;;1.60;;
77326;SDS011;66399;52.322;20.980;2023-02-03T01:24:29;2.80;;;1.30;;
77326;SDS011;66399;52.322;20.980;2023-02-03T01:28:34;4.40;;;1.40;;
77326;SDS011;66399;52.322;20.980;2023-02-03T01:32:40;4.30;;;1.60;;
77326;SDS011;66399;52.322;20.980;2023-02-03T01:36:45;4.20;;;1.90;;
77326;SDS011;66399;52.322;20.980;2023-02-03T01:40:50;4.10;;;1.20;;
77326;SDS011;66399;52.322;20.980;2023-02-03T01:44:55;5.00;;;1.40;;
77326;SDS011;66399;52.322;20.980;2023-02-03T01:49:03;2.70;;;1.20;;
77326;SDS011;66399;52.322;20.980;2023-02-03T01:53:11;3.50;;;1.90;;
77326;SDS011;66399;52.322;20.980;2023-02-03T01:57:17;2.50;;;1.10;;
77326;SDS011;66399;52.322;20.980;2023-02-03T02:01:23;3.40;;;1.60;;
77326;SDS011;66399;52.322;20.980;2023-02-03T02:05:30;4.50;;;1.70;;
77326;SDS011;66399;52.322;20.980;2023-02-03T02:09:36;1.50;;;0.80;;
77326;SDS011;66399;52.322;20.980;2023-02-03T02:13:41;2.50;;;1.10;;
77326;SDS011;66399;52.322;20.980;2023-02-03T02:17:53;2.90;;;1.30;;
77326;SDS011;66399;52.322;20.980;2023-02-03T02:22:03;1.80;;;1.00;;
77326;SDS011;66399;52.322;20.980;2023-02-03T02:26:15;3.20;;;1.20;;
77326;SDS011;66399;52.322;20.980;2023-02-03T02:30:35;1.90;;;0.90;;
77326;SDS011;66399;52.322;20.980;2023-02-03T02:34:45;2.20;;;1.00;;
77326;SDS011;66399;52.322;20.980;2023-02-03T02:38:56;2.70;;;1.20;;
77326;SDS011;66399;52.322;20.980;2023-02-03T02:43:05;2.10;;;0.80;;
77326;SDS011;66399;52.322;20.980;2023-02-03T02:47:14;4.30;;;1.40;;
77326;SDS011;66399;52.322;20.980;2023-02-03T02:51:20;4.60;;;2.00;;
77326;SDS011;66399;52.322;20.980;2023-02-03T02:55:27;4.70;;;1.30;;
77326;SDS011;66399;52.322;20.980;2023-02-03T02:59:34;3.00;;;1.50;;
77326;SDS011;66399;52.322;20.980;2023-02-03T03:03:40;4.90;;;1.40;;
77326;SDS011;66399;52.322;20.980;2023-02-03T03:07:49;2.90;;;1.20;;
77326;SDS011;66399;52.322;20.980;2023-02-03T03:11:58;2.60;;;1.20;;
77326;SDS011;66399;52.322;20.980;2023-02-03T03:16:06;4.90;;;1.50;;
77326;SDS011;66399;52.322;20.980;2023-02-03T03:20:13;3.50;;;1.40;;
77326;SDS011;66399;52.322;20.980;2023-02-03T03:24:20;3.60;;;1.30;;
77326;SDS011;66399;52.322;20.980;2023-02-03T03:28:32;3.30;;;1.30;;
77326;SDS011;66399;52.322;20.980;2023-02-03T03:32:39;2.80;;;1.20;;
77326;SDS011;66399;52.322;20.980;2023-02-03T03:36:45;4.20;;;1.40;;
77326;SDS011;66399;52.322;20.980;2023-02-03T03:40:52;5.10;;;1.50;;
77326;SDS011;66399;52.322;20.980;2023-02-03T03:45:00;2.50;;;1.20;;
77326;SDS011;66399;52.322;20.980;2023-02-03T03:49:06;2.60;;;1.10;;
77326;SDS011;66399;52.322;20.980;2023-02-03T03:53:12;3.40;;;1.20;;
77326;SDS011;66399;52.322;20.980;2023-02-03T03:57:20;3.60;;;1.60;;
77326;SDS011;66399;52.322;20.980;2023-02-03T04:01:26;3.30;;;1.40;;
77326;SDS011;66399;52.322;20.980;2023-02-03T04:09:37;3.70;;;1.30;;
77326;SDS011;66399;52.322;20.980;2023-02-03T04:13:43;3.90;;;1.30;;
77326;SDS011;66399;52.322;20.980;2023-02-03T04:17:48;2.60;;;1.40;;
77326;SDS011;66399;52.322;20.980;2023-02-03T04:21:53;4.20;;;1.50;;
77326;SDS011;66399;52.322;20.980;2023-02-03T04:26:01;2.90;;;1.40;;
77326;SDS011;66399;52.322;20.980;2023-02-03T04:30:07;3.10;;;1.50;;
77326;SDS011;66399;52.322;20.980;2023-02-03T04:34:12;4.20;;;1.50;;
77326;SDS011;66399;52.322;20.980;2023-02-03T04:38:17;3.70;;;1.40;;
77326;SDS011;66399;52.322;20.980;2023-02-03T04:42:23;3.80;;;1.50;;
77326;SDS011;66399;52.322;20.980;2023-02-03T04:46:28;3.60;;;1.60;;
77326;SDS011;66399;52.322;20.980;2023-02-03T04:50:33;4.30;;;1.70;;
77326;SDS011;66399;52.322;20.980;2023-02-03T04:54:39;3.20;;;1.50;;
77326;SDS011;66399;52.322;20.980;2023-02-03T04:58:44;5.20;;;1.80;;
77326;SDS011;66399;52.322;20.980;2023-02-03T05:02:50;2.50;;;1.50;;
77326;SDS011;66399;52.322;20.980;2023-02-03T05:06:55;4.60;;;1.80;;
77326;SDS011;66399;52.322;20.980;2023-02-03T05:11:00;4.90;;;1.90;;
77326;SDS011;66399;52.322;20.980;2023-02-03T05:15:08;3.60;;;1.70;;
77326;SDS011;66399;52.322;20.980;2023-02-03T05:19:14;3.20;;;1.80;;
77326;SDS011;66399;52.322;20.980;2023-02-03T05:23:19;4.30;;;1.90;;
77326;SDS011;66399;52.322;20.980;2023-02-03T05:27:24;5.90;;;2.30;;
77326;SDS011;66399;52.322;20.980;2023-02-03T05:31:30;6.40;;;2.40;;
77326;SDS011;66399;52.322;20.980;2023-02-03T05:35:36;8.70;;;2.70;;
77326;SDS011;66399;52.322;20.980;2023-02-03T05:39:42;6.10;;;3.00;;
77326;SDS011;66399;52.322;20.980;2023-02-03T05:43:47;4.20;;;2.00;;
77326;SDS011;66399;52.322;20.980;2023-02-03T05:47:52;7.50;;;2.30;;
77326;SDS011;66399;52.322;20.980;2023-02-03T05:51:58;8.60;;;3.10;;
77326;SDS011;66399;52.322;20.980;2023-02-03T05:56:03;4.60;;;2.40;;
77326;SDS011;66399;52.322;20.980;2023-02-03T06:00:11;7.80;;;2.60;;
77326;SDS011;66399;52.322;20.980;2023-02-03T06:04:17;8.70;;;4.30;;
77326;SDS011;66399;52.322;20.980;2023-02-03T06:08:23;9.30;;;4.30;;
77326;SDS011;66399;52.322;20.980;2023-02-03T06:12:31;11.10;;;4.30;;
77326;SDS011;66399;52.322;20.980;2023-02-03T06:16:36;9.50;;;4.30;;
77326;SDS011;66399;52.322;20.980;2023-02-03T06:20:42;10.10;;;3.50;;
77326;SDS011;66399;52.322;20.980;2023-02-03T06:24:47;7.00;;;2.70;;
77326;SDS011;66399;52.322;20.980;2023-02-03T06:28:53;9.20;;;3.70;;
77326;SDS011;66399;52.322;20.980;2023-02-03T06:32:58;8.50;;;3.10;;
77326;SDS011;66399;52.322;20.980;2023-02-03T06:37:04;10.40;;;3.60;;
77326;SDS011;66399;52.322;20.980;2023-02-03T06:41:09;8.30;;;2.80;;
77326;SDS011;66399;52.322;20.980;2023-02-03T06:45:14;10.30;;;3.10;;
77326;SDS011;66399;52.322;20.980;2023-02-03T06:49:19;13.60;;;3.40;;
77326;SDS011;66399;52.322;20.980;2023-02-03T06:53:25;9.70;;;4.00;;
77326;SDS011;66399;52.322;20.980;2023-02-03T06:57:30;9.90;;;3.70;;
77326;SDS011;66399;52.322;20.980;2023-02-03T07:01:35;6.50;;;3.10;;
77326;SDS011;66399;52.322;20.980;2023-02-03T07:05:41;8.90;;;3.80;;
77326;SDS011;66399;52.322;20.980;2023-02-03T07:09:46;9.00;;;3.30;;
77326;SDS011;66399;52.322;20.980;2023-02-03T07:13:52;5.80;;;2.80;;
77326;SDS011;66399;52.322;20.980;2023-02-03T07:17:58;6.40;;;2.70;;
77326;SDS011;66399;52.322;20.980;2023-02-03T07:22:04;4.40;;;2.50;;
77326;SDS011;66399;52.322;20.980;2023-02-03T07:26:09;7.70;;;2.90;;
77326;SDS011;66399;52.322;20.980;2023-02-03T07:30:15;6.00;;;2.50;;
77326;SDS011;66399;52.322;20.980;2023-02-03T07:34:20;5.50;;;2.20;;
77326;SDS011;66399;52.322;20.980;2023-02-03T07:38:26;5.10;;;2.30;;
77326;SDS011;66399;52.322;20.980;2023-02-03T07:42:31;8.50;;;2.90;;
77326;SDS011;66399;52.322;20.980;2023-02-03T07:46:37;8.40;;;2.90;;
77326;SDS011;66399;52.322;20.980;2023-02-03T07:50:47;7.20;;;2.50;;
77326;SDS011;66399;52.322;20.980;2023-02-03T07:54:53;9.30;;;2.80;;
77326;SDS011;66399;52.322;20.980;2023-02-03T07:58:59;7.90;;;3.30;;
77326;SDS011;66399;52.322;20.980;2023-02-03T08:03:05;5.10;;;2.60;;
77326;SDS011;66399;52.322;20.980;2023-02-03T08:07:10;6.40;;;2.70;;
77326;SDS011;66399;52.322;20.980;2023-02-03T08:11:15;7.50;;;2.20;;
77326;SDS011;66399;52.322;20.980;2023-02-03T08:15:21;7.60;;;3.10;;
77326;SDS011;66399;52.322;20.980;2023-02-03T08:19:26;9.30;;;3.00;;
77326;SDS011;66399;52.322;20.980;2023-02-03T08:23:32;7.20;;;3.40;;
77326;SDS011;66399;52.322;20.980;2023-02-03T08:27:37;5.90;;;2.30;;
77326;SDS011;66399;52.322;20.980;2023-02-03T08:31:42;7.50;;;2.50;;
77326;SDS011;66399;52.322;20.980;2023-02-03T08:35:49;5.10;;;2.50;;
77326;SDS011;66399;52.322;20.980;2023-02-03T08:39:54;7.80;;;2.40;;
77326;SDS011;66399;52.322;20.980;2023-02-03T08:43:59;6.20;;;2.90;;
77326;SDS011;66399;52.322;20.980;2023-02-03T08:48:05;5.80;;;2.30;;
77326;SDS011;66399;52.322;20.980;2023-02-03T08:52:11;5.70;;;2.10;;
77326;SDS011;66399;52.322;20.980;2023-02-03T08:56:16;4.00;;;2.10;;
77326;SDS011;66399;52.322;20.980;2023-02-03T09:00:22;7.10;;;2.50;;
77326;SDS011;66399;52.322;20.980;2023-02-03T09:04:28;2.40;;;0.90;;
77326;SDS011;66399;52.322;20.980;2023-02-03T09:08:36;5.90;;;2.10;;
77326;SDS011;66399;52.322;20.980;2023-02-03T09:12:42;4.60;;;2.00;;
77326;SDS011;66399;52.322;20.980;2023-02-03T09:16:47;6.30;;;2.10;;
77326;SDS011;66399;52.322;20.980;2023-02-03T09:20:53;6.10;;;2.10;;
77326;SDS011;66399;52.322;20.980;2023-02-03T09:25:04;4.00;;;2.10;;
77326;SDS011;66399;52.322;20.980;2023-02-03T09:29:10;4.80;;;1.80;;
77326;SDS011;66399;52.322;20.980;2023-02-03T09:33:15;8.10;;;1.90;;
77326;SDS011;66399;52.322;20.980;2023-02-03T09:37:20;4.40;;;1.80;;
77326;SDS011;66399;52.322;20.980;2023-02-03T09:41:29;5.20;;;1.60;;
77326;SDS011;66399;52.322;20.980;2023-02-03T09:45:39;3.70;;;1.60;;
77326;SDS011;66399;52.322;20.980;2023-02-03T09:49:45;3.40;;;1.60;;
77326;SDS011;66399;52.322;20.980;2023-02-03T09:53:57;3.70;;;1.40;;
77326;SDS011;66399;52.322;20.980;2023-02-03T09:58:05;5.80;;;1.60;;
77326;SDS011;66399;52.322;20.980;2023-02-03T10:02:15;3.80;;;1.60;;
77326;SDS011;66399;52.322;20.980;2023-02-03T10:06:27;4.60;;;1.90;;
77326;SDS011;66399;52.322;20.980;2023-02-03T10:10:36;2.90;;;1.40;;
77326;SDS011;66399;52.322;20.980;2023-02-03T10:14:52;3.50;;;1.50;;
77326;SDS011;66399;52.322;20.980;2023-02-03T10:19:10;2.80;;;1.20;;
77326;SDS011;66399;52.322;20.980;2023-02-03T10:23:17;4.50;;;1.80;;
77326;SDS011;66399;52.322;20.980;2023-02-03T10:27:24;3.10;;;1.60;;
77326;SDS011;66399;52.322;20.980;2023-02-03T10:31:32;3.90;;;1.70;;
77326;SDS011;66399;52.322;20.980;2023-02-03T10:35:42;2.90;;;1.30;;
77326;SDS011;66399;52.322;20.980;2023-02-03T10:39:51;2.30;;;1.20;;
77326;SDS011;66399;52.322;20.980;2023-02-03T10:43:57;3.30;;;1.60;;
77326;SDS011;66399;52.322;20.980;2023-02-03T10:48:02;4.80;;;1.50;;
77326;SDS011;66399;52.322;20.980;2023-02-03T10:52:08;2.70;;;1.30;;
77326;SDS011;66399;52.322;20.980;2023-02-03T10:56:30;2.40;;;1.00;;
77326;SDS011;66399;52.322;20.980;2023-02-03T11:00:36;2.50;;;1.40;;
77326;SDS011;66399;52.322;20.980;2023-02-03T11:04:41;3.00;;;1.30;;
77326;SDS011;66399;52.322;20.980;2023-02-03T11:08:47;3.30;;;1.20;;
77326;SDS011;66399;52.322;20.980;2023-02-03T11:16:56;3.60;;;1.60;;
77326;SDS011;66399;52.322;20.980;2023-02-03T11:21:10;4.30;;;1.70;;
77326;SDS011;66399;52.322;20.980;2023-02-03T11:25:16;3.80;;;1.50;;
77326;SDS011;66399;52.322;20.980;2023-02-03T11:29:24;3.40;;;1.40;;
77326;SDS011;66399;52.322;20.980;2023-02-03T11:33:31;1.80;;;0.80;;
77326;SDS011;66399;52.322;20.980;2023-02-03T11:41:40;2.70;;;1.30;;
77326;SDS011;66399;52.322;20.980;2023-02-03T11:45:46;8.00;;;1.60;;
77326;SDS011;66399;52.322;20.980;2023-02-03T11:49:59;5.80;;;2.10;;
77326;SDS011;66399;52.322;20.980;2023-02-03T11:54:13;3.50;;;1.50;;
77326;SDS011;66399;52.322;20.980;2023-02-03T12:02:49;1.50;;;0.80;;
77326;SDS011;66399;52.322;20.980;2023-02-03T12:11:26;5.00;;;1.60;;
77326;SDS011;66399;52.322;20.980;2023-02-03T12:15:37;3.00;;;1.40;;
77326;SDS011;66399;52.322;20.980;2023-02-03T12:19:47;3.00;;;1.30;;
77326;SDS011;66399;52.322;20.980;2023-02-03T12:23:58;2.90;;;1.10;;
77326;SDS011;66399;52.322;20.980;2023-02-03T12:28:08;3.10;;;1.40;;
77326;SDS011;66399;52.322;20.980;2023-02-03T12:32:37;4.70;;;1.70;;
77326;SDS011;66399;52.322;20.980;2023-02-03T12:36:45;1.90;;;0.60;;
77326;SDS011;66399;52.322;20.980;2023-02-03T12:40:53;5.50;;;2.20;;
77326;SDS011;66399;52.322;20.980;2023-02-03T12:45:00;4.80;;;1.90;;
77326;SDS011;66399;52.322;20.980;2023-02-03T12:49:09;3.60;;;1.70;;
77326;SDS011;66399;52.322;20.980;2023-02-03T12:53:17;5.10;;;1.50;;
77326;SDS011;66399;52.322;20.980;2023-02-03T12:57:26;3.40;;;1.60;;
77326;SDS011;66399;52.322;20.980;2023-02-03T13:01:33;3.90;;;1.50;;
77326;SDS011;66399;52.322;20.980;2023-02-03T13:05:42;3.20;;;1.50;;
77326;SDS011;66399;52.322;20.980;2023-02-03T13:09:51;3.00;;;1.60;;
77326;SDS011;66399;52.322;20.980;2023-02-03T13:14:02;6.30;;;1.80;;
77326;SDS011;66399;52.322;20.980;2023-02-03T13:18:11;3.60;;;2.10;;
77326;SDS011;66399;52.322;20.980;2023-02-03T13:22:20;4.00;;;1.90;;
77326;SDS011;66399;52.322;20.980;2023-02-03T13:26:37;4.30;;;1.90;;
77326;SDS011;66399;52.322;20.980;2023-02-03T13:30:55;5.20;;;1.80;;
77326;SDS011;66399;52.322;20.980;2023-02-03T13:35:10;4.20;;;2.10;;
77326;SDS011;66399;52.322;20.980;2023-02-03T13:39:31;4.20;;;1.60;;
77326;SDS011;66399;52.322;20.980;2023-02-03T13:43:39;2.90;;;1.20;;
77326;SDS011;66399;52.322;20.980;2023-02-03T13:47:46;4.80;;;1.60;;
77326;SDS011;66399;52.322;20.980;2023-02-03T13:51:54;3.00;;;1.40;;
77326;SDS011;66399;52.322;20.980;2023-02-03T13:56:00;3.80;;;1.90;;
77326;SDS011;66399;52.322;20.980;2023-02-03T14:04:49;3.10;;;1.70;;
77326;SDS011;66399;52.322;20.980;2023-02-03T14:08:45;4.30;;;1.70;;
77326;SDS011;66399;52.322;20.980;2023-02-03T14:12:56;3.70;;;1.70;;
77326;SDS011;66399;52.322;20.980;2023-02-03T14:17:02;1.90;;;1.00;;
77326;SDS011;66399;52.322;20.980;2023-02-03T14:21:12;6.40;;;2.30;;
77326;SDS011;66399;52.322;20.980;2023-02-03T14:25:18;5.10;;;2.10;;
77326;SDS011;66399;52.322;20.980;2023-02-03T14:29:26;4.90;;;2.10;;
77326;SDS011;66399;52.322;20.980;2023-02-03T14:33:45;5.90;;;1.70;;
77326;SDS011;66399;52.322;20.980;2023-02-03T14:37:54;3.60;;;1.70;;
77326;SDS011;66399;52.322;20.980;2023-02-03T14:42:02;1.40;;;0.60;;
77326;SDS011;66399;52.322;20.980;2023-02-03T14:46:18;2.20;;;1.10;;
77326;SDS011;66399;52.322;20.980;2023-02-03T14:50:30;2.20;;;1.10;;
77326;SDS011;66399;52.322;20.980;2023-02-03T14:54:42;5.50;;;2.30;;
77326;SDS011;66399;52.322;20.980;2023-02-03T14:58:51;3.20;;;1.20;;
77326;SDS011;66399;52.322;20.980;2023-02-03T15:03:15;2.20;;;1.10;;
77326;SDS011;66399;52.322;20.980;2023-02-03T15:07:39;2.50;;;1.10;;
77326;SDS011;66399;52.322;20.980;2023-02-03T15:11:47;5.70;;;2.20;;
77326;SDS011;66399;52.322;20.980;2023-02-03T15:15:54;3.20;;;1.50;;
77326;SDS011;66399;52.322;20.980;2023-02-03T15:20:00;4.80;;;2.30;;
77326;SDS011;66399;52.322;20.980;2023-02-03T15:24:10;1.60;;;0.80;;
77326;SDS011;66399;52.322;20.980;2023-02-03T15:28:18;4.20;;;1.70;;
77326;SDS011;66399;52.322;20.980;2023-02-03T15:32:25;3.60;;;1.30;;
77326;SDS011;66399;52.322;20.980;2023-02-03T15:36:34;1.90;;;1.10;;
77326;SDS011;66399;52.322;20.980;2023-02-03T15:40:43;5.50;;;2.50;;
77326;SDS011;66399;52.322;20.980;2023-02-03T15:44:50;6.90;;;2.60;;
77326;SDS011;66399;52.322;20.980;2023-02-03T15:48:57;7.30;;;2.40;;
77326;SDS011;66399;52.322;20.980;2023-02-03T15:53:07;6.20;;;2.30;;
77326;SDS011;66399;52.322;20.980;2023-02-03T15:57:16;2.40;;;1.00;;
77326;SDS011;66399;52.322;20.980;2023-02-03T16:01:22;2.40;;;1.20;;
77326;SDS011;66399;52.322;20.980;2023-02-03T16:05:31;2.50;;;1.50;;
77326;SDS011;66399;52.322;20.980;2023-02-03T16:09:39;3.70;;;1.70;;
77326;SDS011;66399;52.322;20.980;2023-02-03T16:13:45;6.60;;;2.30;;
77326;SDS011;66399;52.322;20.980;2023-02-03T16:17:55;4.60;;;1.90;;
77326;SDS011;66399;52.322;20.980;2023-02-03T16:22:01;10.70;;;3.90;;
77326;SDS011;66399;52.322;20.980;2023-02-03T16:26:15;5.30;;;2.00;;
77326;SDS011;66399;52.322;20.980;2023-02-03T16:30:23;8.70;;;3.30;;
77326;SDS011;66399;52.322;20.980;2023-02-03T16:34:45;6.30;;;2.60;;
77326;SDS011;66399;52.322;20.980;2023-02-03T16:39:10;3.20;;;1.80;;
77326;SDS011;66399;52.322;20.980;2023-02-03T16:43:33;4.80;;;1.80;;
77326;SDS011;66399;52.322;20.980;2023-02-03T16:47:56;8.50;;;3.30;;
77326;SDS011;66399;52.322;20.980;2023-02-03T16:52:19;6.40;;;2.70;;
77326;SDS011;66399;52.322;20.980;2023-02-03T16:56:25;4.70;;;1.80;;
77326;SDS011;66399;52.322;20.980;2023-02-03T17:00:30;7.20;;;2.90;;
77326;SDS011;66399;52.322;20.980;2023-02-03T17:04:35;6.20;;;2.00;;
77326;SDS011;66399;52.322;20.980;2023-02-03T17:08:41;5.90;;;2.30;;
77326;SDS011;66399;52.322;20.980;2023-02-03T17:12:46;8.40;;;3.20;;
77326;SDS011;66399;52.322;20.980;2023-02-03T17:16:52;9.00;;;3.80;;
77326;SDS011;66399;52.322;20.980;2023-02-03T17:21:01;3.20;;;1.90;;
77326;SDS011;66399;52.322;20.980;2023-02-03T17:25:08;4.70;;;2.20;;
77326;SDS011;66399;52.322;20.980;2023-02-03T17:29:13;3.20;;;1.40;;
77326;SDS011;66399;52.322;20.980;2023-02-03T17:33:18;8.10;;;2.80;;
77326;SDS011;66399;52.322;20.980;2023-02-03T17:37:24;6.80;;;2.60;;
77326;SDS011;66399;52.322;20.980;2023-02-03T17:41:29;4.50;;;1.10;;
77326;SDS011;66399;52.322;20.980;2023-02-03T17:45:52;4.60;;;2.40;;
77326;SDS011;66399;52.322;20.980;2023-02-03T17:50:15;4.80;;;2.10;;
77326;SDS011;66399;52.322;20.980;2023-02-03T17:54:39;5.20;;;2.20;;
77326;SDS011;66399;52.322;20.980;2023-02-03T17:58:44;7.10;;;2.20;;
77326;SDS011;66399;52.322;20.980;2023-02-03T18:02:50;13.90;;;4.20;;
77326;SDS011;66399;52.322;20.980;2023-02-03T18:06:56;6.00;;;2.00;;
77326;SDS011;66399;52.322;20.980;2023-02-03T18:11:01;6.80;;;3.00;;
77326;SDS011;66399;52.322;20.980;2023-02-03T18:15:08;7.10;;;2.90;;
77326;SDS011;66399;52.322;20.980;2023-02-03T18:19:14;9.60;;;3.80;;
77326;SDS011;66399;52.322;20.980;2023-02-03T18:23:19;12.30;;;4.80;;
77326;SDS011;66399;52.322;20.980;2023-02-03T18:27:25;9.60;;;3.90;;
77326;SDS011;66399;52.322;20.980;2023-02-03T18:31:30;6.00;;;2.60;;
77326;SDS011;66399;52.322;20.980;2023-02-03T18:35:36;6.30;;;2.70;;
77326;SDS011;66399;52.322;20.980;2023-02-03T18:39:42;11.90;;;5.00;;
77326;SDS011;66399;52.322;20.980;2023-02-03T18:43:47;2.60;;;1.30;;
77326;SDS011;66399;52.322;20.980;2023-02-03T18:47:53;6.00;;;2.50;;
77326;SDS011;66399;52.322;20.980;2023-02-03T18:51:58;14.50;;;6.50;;
77326;SDS011;66399;52.322;20.980;2023-02-03T18:56:06;14.90;;;5.70;;
77326;SDS011;66399;52.322;20.980;2023-02-03T19:00:13;11.90;;;5.00;;
77326;SDS011;66399;52.322;20.980;2023-02-03T19:04:18;8.20;;;3.80;;
77326;SDS011;66399;52.322;20.980;2023-02-03T19:08:24;17.30;;;5.20;;
77326;SDS011;66399;52.322;20.980;2023-02-03T19:12:29;11.50;;;4.70;;
77326;SDS011;66399;52.322;20.980;2023-02-03T19:16:34;8.50;;;3.30;;
77326;SDS011;66399;52.322;20.980;2023-02-03T19:20:40;6.70;;;3.10;;
77326;SDS011;66399;52.322;20.980;2023-02-03T19:24:46;9.60;;;3.40;;
77326;SDS011;66399;52.322;20.980;2023-02-03T19:28:51;8.20;;;3.20;;
77326;SDS011;66399;52.322;20.980;2023-02-03T19:32:58;8.70;;;3.70;;
77326;SDS011;66399;52.322;20.980;2023-02-03T19:37:05;8.30;;;4.10;;
77326;SDS011;66399;52.322;20.980;2023-02-03T19:41:10;12.30;;;4.80;;
77326;SDS011;66399;52.322;20.980;2023-02-03T19:45:16;6.50;;;3.00;;
77326;SDS011;66399;52.322;20.980;2023-02-03T19:49:22;13.50;;;4.80;;
77326;SDS011;66399;52.322;20.980;2023-02-03T19:53:28;11.40;;;4.60;;
77326;SDS011;66399;52.322;20.980;2023-02-03T19:57:33;13.70;;;5.00;;
77326;SDS011;66399;52.322;20.980;2023-02-03T20:01:39;15.90;;;5.40;;
77326;SDS011;66399;52.322;20.980;2023-02-03T20:05:46;10.70;;;4.30;;
77326;SDS011;66399;52.322;20.980;2023-02-03T20:09:51;15.00;;;5.40;;
77326;SDS011;66399;52.322;20.980;2023-02-03T20:13:56;11.20;;;4.80;;
77326;SDS011;66399;52.322;20.980;2023-02-03T20:18:03;9.80;;;3.60;;
77326;SDS011;66399;52.322;20.980;2023-02-03T20:22:09;11.20;;;5.20;;
77326;SDS011;66399;52.322;20.980;2023-02-03T20:26:14;12.50;;;5.50;;
77326;SDS011;66399;52.322;20.980;2023-02-03T20:30:20;11.30;;;5.20;;
77326;SDS011;66399;52.322;20.980;2023-02-03T20:34:25;12.20;;;5.50;;
77326;SDS011;66399;52.322;20.980;2023-02-03T20:38:31;10.60;;;4.40;;
77326;SDS011;66399;52.322;20.980;2023-02-03T20:42:37;11.70;;;4.20;;
77326;SDS011;66399;52.322;20.980;2023-02-03T20:46:43;7.10;;;3.30;;
77326;SDS011;66399;52.322;20.980;2023-02-03T20:50:49;12.80;;;5.40;;
77326;SDS011;66399;52.322;20.980;2023-02-03T20:54:54;6.30;;;3.10;;
77326;SDS011;66399;52.322;20.980;2023-02-03T20:59:00;7.30;;;3.60;;
77326;SDS011;66399;52.322;20.980;2023-02-03T21:03:07;13.10;;;5.20;;
77326;SDS011;66399;52.322;20.980;2023-02-03T21:07:35;14.10;;;4.90;;
77326;SDS011;66399;52.322;20.980;2023-02-03T21:15:45;10.90;;;4.80;;
77326;SDS011;66399;52.322;20.980;2023-02-03T21:19:52;12.30;;;5.80;;
77326;SDS011;66399;52.322;20.980;2023-02-03T21:28:02;5.50;;;2.00;;
77326;SDS011;66399;52.322;20.980;2023-02-03T21:32:11;15.40;;;6.30;;
77326;SDS011;66399;52.322;20.980;2023-02-03T21:36:18;16.50;;;5.40;;
77326;SDS011;66399;52.322;20.980;2023-02-03T21:40:25;14.50;;;5.90;;
77326;SDS011;66399;52.322;20.980;2023-02-03T21:44:32;13.60;;;5.50;;
77326;SDS011;66399;52.322;20.980;2023-02-03T21:48:38;7.60;;;3.20;;
77326;SDS011;66399;52.322;20.980;2023-02-03T21:52:44;11.70;;;5.70;;
77326;SDS011;66399;52.322;20.980;2023-02-03T21:56:49;4.90;;;2.50;;
77326;SDS011;66399;52.322;20.980;2023-02-03T22:00:55;10.80;;;4.60;;
77326;SDS011;66399;52.322;20.980;2023-02-03T22:05:01;12.00;;;5.40;;
77326;SDS011;66399;52.322;20.980;2023-02-03T22:09:08;7.80;;;2.60;;
77326;SDS011;66399;52.322;20.980;2023-02-03T22:13:14;13.00;;;4.20;;
77326;SDS011;66399;52.322;20.980;2023-02-03T22:17:20;6.50;;;2.50;;
77326;SDS011;66399;52.322;20.980;2023-02-03T22:21:25;5.20;;;1.30;;
77326;SDS011;66399;52.322;20.980;2023-02-03T22:25:30;8.90;;;3.80;;
77326;SDS011;66399;52.322;20.980;2023-02-03T22:29:36;11.00;;;3.00;;
77326;SDS011;66399;52.322;20.980;2023-02-03T22:33:41;8.10;;;3.90;;
77326;SDS011;66399;52.322;20.980;2023-02-03T22:37:47;3.90;;;1.80;;
77326;SDS011;66399;52.322;20.980;2023-02-03T22:41:53;3.00;;;1.10;;
77326;SDS011;66399;52.322;20.980;2023-02-03T22:45:58;6.40;;;2.40;;
77326;SDS011;66399;52.322;20.980;2023-02-03T22:50:06;11.50;;;5.00;;
77326;SDS011;66399;52.322;20.980;2023-02-03T22:54:11;7.40;;;3.10;;
77326;SDS011;66399;52.322;20.980;2023-02-03T22:58:17;8.50;;;3.60;;
77326;SDS011;66399;52.322;20.980;2023-02-03T23:02:22;7.80;;;3.20;;
77326;SDS011;66399;52.322;20.980;2023-02-03T23:06:28;11.90;;;4.30;;
77326;SDS011;66399;52.322;20.980;2023-02-03T23:10:33;5.50;;;2.50;;
77326;SDS011;66399;52.322;20.980;2023-02-03T23:14:38;8.30;;;3.00;;
77326;SDS011;66399;52.322;20.980;2023-02-03T23:18:44;5.20;;;2.10;;
77326;SDS011;66399;52.322;20.980;2023-02-03T23:22:49;7.40;;;3.40;;
77326;SDS011;66399;52.322;20.980;2023-02-03T23:26:55;6.60;;;3.00;;
77326;SDS011;66399;52.322;20.980;2023-02-03T23:31:00;9.20;;;2.90;;
77326;SDS011;66399;52.322;20.980;2023-02-03T23:35:07;9.60;;;3.80;;
77326;SDS011;66399;52.322;20.980;2023-02-03T23:39:30;7.60;;;3.00;;
77326;SDS011;66399;52.322;20.980;2023-02-03T23:43:35;5.90;;;2.70;;
77326;SDS011;66399;52.322;20.980;2023-02-03T23:47:41;6.70;;;2.80;;
77326;SDS011;66399;52.322;20.980;2023-02-03T23:51:47;7.20;;;3.20;;
77326;SDS011;66399;52.322;20.980;2023-02-03T23:55:52;5.60;;;1.90;;
77326;SDS011;66399;52.322;20.980;2023-02-03T23:59:57;6.60;;;2.90;;
